Grenora, North Dakota
Current Conditions -  °F | °C
As of 7:52 PM on Wednesday 22 Oct 2014 (Local Time) from KISN Reporting Station
Clear Clear  
Wind Chill: 12°   Ceiling: Unl
Heat Index: 12°   Visibility: 10mi
Dew Point:   Wind: 8mph
Humidity: 48%   Direction: 260°W
Pressure: 29.84"   Gusts: NA
Location:  48.62°N, 103.94°W
Report Text: KISN 230052Z AUTO 26007KT 10SM CLR 12/01 A2984 RMK AO2 SLP111 T01170011
Loading
Personal Weather Stations






























Interactive Weather Map
Tropical Storm Tracking
New forecast layout! Learn more

10-Day Weather Forecast

Advertisements
Track Severe Weather on mobile